ADDS METAR Data INFO
IDs: Format: Raw Decoded Include TAF

Data at: 1808 UTC 18 Feb 2018

K11R 181755Z AUTO 14007KT 5SM BR OVC004 19/19 A3012 RMK AO2 T01880188 10188 20126
K11R 181735Z AUTO 17006KT 5SM BR OVC004 18/18 A3014 RMK AO2 T01820182
K11R 181715Z AUTO 16005KT 4SM BR OVC002 18/18 A3014 RMK AO2 T01770177
K11R 181655Z AUTO 15004KT 2SM BR OVC002 17/17 A3015 RMK AO2 T01700170
K11R 181635Z AUTO 15005KT 1 3/4SM BR OVC002 17/17 A3015 RMK AO2 T01650165
K11R 181615Z AUTO 15003KT 1 3/4SM BR OVC002 16/16 A3015 RMK AO2 T01600160
K11R 181555Z AUTO 13004KT 1SM BR OVC002 16/16 A3015 RMK AO2 T01550155
K11R 181535Z AUTO 14004KT 3/4SM BR OVC002 15/15 A3015 RMK AO2 T01460146
K11R 181515Z AUTO 12003KT 3/4SM BR OVC002 14/14 A3015 RMK AO2 T01410141
K11R 181455Z AUTO 00000KT 1/4SM FG OVC002 14/14 A3014 RMK AO2 T01380138
K11R 181435Z AUTO 09003KT 1/4SM FG OVC002 14/14 A3013 RMK AO2 T01360136
K11R 181415Z AUTO 00000KT M1/4SM FG OVC002 14/14 A3013 RMK AO2 T01350135
K11R 181355Z AUTO 00000KT M1/4SM FG OVC002 13/13 A3013 RMK AO2 T01330133
K11R 181335Z AUTO 00000KT 1/4SM FG OVC002 13/13 A3012 RMK AO2 T01300130
K11R 181315Z AUTO 00000KT 1 1/2SM BR OVC002 13/13 A3012 RMK AO2 T01300130
K11R 181255Z AUTO 00000KT 4SM BR OVC004 13/13 A3012 RMK AO2 T01280128
K11R 181235Z AUTO 06003KT 4SM BR OVC004 13/13 A3012 RMK AO2 T01280128
K11R 181215Z AUTO 05003KT 4SM BR OVC004 13/13 A3012 RMK AO2 T01270127
K11R 181155Z AUTO 04003KT 4SM BR OVC004 13/13 A3012 RMK AO2 P0001 60001 70002 T01260126 10126 20122
K11R 181135Z AUTO 04003KT 3SM BR OVC004 13/13 A3012 RMK AO2 T01260126
K11R 181115Z AUTO 00000KT 3SM BR OVC004 13/13 A3013 RMK AO2 T01250125
K11R 181055Z AUTO 00000KT 3SM -DZ OVC004 13/13 A3012 RMK AO2 T01250125
K11R 181035Z AUTO 00000KT 3SM BR OVC004 13/13 A3012 RMK AO2 T01250125
K11R 181015Z AUTO 05003KT 3SM BR OVC004 13/13 A3012 RMK AO2 T01250125
K11R 180955Z AUTO 00000KT 3SM -RA OVC004 13/13 A3013 RMK AO2 T01250125
K11R 180935Z AUTO 00000KT 5SM BR OVC004 13/13 A3013 RMK AO2 T01250125
K11R 180915Z AUTO 00000KT 5SM BR OVC004 13/13 A3013 RMK AO2 T01250125
K11R 180855Z AUTO 00000KT 5SM BR OVC004 13/13 A3013 RMK AO2 T01250125
K11R 180835Z AUTO 02004KT 5SM BR OVC004 13/13 A3013 RMK AO2 T01250125
K11R 180815Z AUTO 03003KT 5SM BR OVC004 13/13 A3013 RMK AO2 T01250125
K11R 180755Z AUTO 03003KT 5SM BR OVC004 12/12 A3014 RMK AO2 T01230123
K11R 180735Z AUTO 03003KT 5SM BR OVC004 12/12 A3014 RMK AO2 T01230123
K11R 180715Z AUTO 04004KT 4SM BR OVC004 12/12 A3015 RMK AO2 T01230123
K11R 180655Z AUTO 02003KT 4SM BR OVC004 12/12 A3015 RMK AO2 T01230123
K11R 180635Z AUTO 03003KT 4SM BR OVC004 12/12 A3015 RMK AO2 T01230123
K11R 180615Z AUTO 00000KT 3SM BR OVC006 12/12 A3016 RMK AO2 T01230122
K11R 180555Z AUTO 04004KT 3SM BR BKN006 OVC013 12/12 A3016 RMK AO2 T01230122 10142 20123 401840108
K11R 180535Z AUTO 00000KT 7SM OVC013 13/12 A3016 RMK AO2 T01250122
K11R 180515Z AUTO 04003KT 7SM SCT007 OVC013 13/12 A3016 RMK AO2 T01250123
K11R 180455Z AUTO 02003KT 5SM BR SCT007 OVC015 13/12 A3017 RMK AO2 T01250122
K11R 180435Z AUTO 04004KT 5SM -RA BKN005 OVC015 13/12 A3017 RMK AO2 T01250123
K11R 180415Z AUTO 03003KT 7SM OVC005 13/12 A3017 RMK AO2 T01250123
K11R 180355Z AUTO 01004KT 7SM OVC005 13/12 A3017 RMK AO2 T01250124
K11R 180335Z AUTO 02004KT 7SM OVC005 13/12 A3018 RMK AO2 T01250123
K11R 180315Z AUTO 01004KT 7SM BKN005 OVC024 13/12 A3017 RMK AO2 T01250123
K11R 180255Z AUTO 02003KT 7SM BKN005 OVC024 13/12 A3016 RMK AO2 T01250124
K11R 180235Z AUTO 36006KT 7SM OVC005 13/12 A3017 RMK AO2 T01250124
K11R 180215Z AUTO 03003KT 5SM BR BKN005 OVC009 13/12 A3017 RMK AO2 T01250123
K11R 180155Z AUTO 01003KT 5SM BR SCT005 BKN009 OVC023 13/12 A3017 RMK AO2 T01250122
K11R 180135Z AUTO 02003KT 5SM BR BKN011 OVC023 13/12 A3016 RMK AO2 T01250121
K11R 180115Z AUTO 36003KT 5SM BR SCT013 OVC023 13/12 A3016 RMK AO2 T01250120
K11R 180055Z AUTO 01005KT 5SM -DZ OVC023 13/12 A3015 RMK AO2 T01270116
K11R 180035Z AUTO 03004KT 5SM DZ OVC021 13/11 A3015 RMK AO2 T01310109
K11R 180015Z AUTO 02003KT 7SM RA OVC017 14/11 A3014 RMK AO2 T01400107
K11R 172355Z AUTO 00000KT 10SM OVC017 14/10 A3015 RMK AO2 T01430103 10184 20116
K11R 172335Z AUTO 07003KT 10SM OVC017 14/10 A3014 RMK AO2 T01430101
K11R 172315Z AUTO 05004KT 10SM OVC017 14/10 A3014 RMK AO2 T01430101
K11R 172255Z AUTO 02005KT 10SM OVC019 14/10 A3014 RMK AO2 T01430100
K11R 172235Z AUTO 02006KT 10SM OVC019 15/10 A3014 RMK AO2 T01450100
K11R 172215Z AUTO 02010KT 10SM OVC019 15/10 A3014 RMK AO2 T01460100
K11R 172155Z AUTO 01011G17KT 10SM OVC021 15/10 A3013 RMK AO2 T01540104
K11R 172135Z AUTO 36010KT 10SM OVC021 16/11 A3013 RMK AO2 T01610110
K11R 172115Z AUTO 01013KT 10SM OVC021 17/11 A3012 RMK AO2 T01680114
K11R 172055Z AUTO 36009KT 10SM OVC019 17/12 A3011 RMK AO2 T01730121
K11R 172035Z AUTO 36008KT 10SM OVC019 18/13 A3011 RMK AO2 T01810129
K11R 172015Z AUTO 36008KT 10SM OVC017 18/13 A3010 RMK AO2 T01820131
K11R 171955Z AUTO 35004KT 10SM BKN015 OVC043 18/13 A3010 RMK AO2 T01810129
K11R 171935Z AUTO 00000KT 10SM SCT015 BKN043 OVC095 18/13 A3010 RMK AO2 T01810126
K11R 171915Z AUTO 00000KT 10SM SCT043 SCT048 BKN095 17/12 A3011 RMK AO2 T01670120
K11R 171855Z AUTO 00000KT 10SM BKN043 BKN085 15/11 A3011 RMK AO2 T01520113
K11R 171835Z AUTO 15008KT 7SM BKN043 BKN085 15/11 A3010 RMK AO2 T01460110
K11R 171815Z AUTO 15007KT 5SM HZ SCT015 SCT029 BKN047 13/11 A3012 RMK AO2 T01320106
K11R 171755Z AUTO 12003KT 7SM BKN011 BKN015 OVC029 12/09 A3015 RMK AO2 60001 T01150093 10140 20108
K11R 171735Z AUTO 36010KT 5SM BR OVC011 11/09 A3018 RMK AO2 T01120092
K11R 171715Z AUTO 36009KT 5SM BR OVC013 11/09 A3018 RMK AO2 T01100091
K11R 171655Z AUTO 35011KT 4SM BR OVC013 11/09 A3019 RMK AO2 T01100092
K11R 171635Z AUTO 33010KT 4SM RA OVC011 11/09 A3019 RMK AO2 T01100088
K11R 171615Z AUTO 34011KT 4SM DZ OVC011 11/09 A3018 RMK AO2 T01130087
K11R 171555Z AUTO 34010KT 7SM -RA OVC011 12/08 A3017 RMK AO2 T01150084
K11R 171535Z AUTO 35011KT 10SM OVC013 12/08 A3016 RMK AO2 T01190081
K11R 171515Z AUTO 34009KT 10SM OVC013 12/09 A3015 RMK AO2 T01210085
K11R 171455Z AUTO 35010G15KT 10SM OVC013 12/09 A3014 RMK AO2 60001 T01200085
K11R 171435Z AUTO 35010KT 10SM OVC011 12/10 A3013 RMK AO2 T01200101
K11R 171415Z AUTO 34008KT 7SM DZ OVC011 12/11 A3012 RMK AO2 T01220107
K11R 171355Z AUTO 34006KT 10SM OVC009 12/11 A3011 RMK AO2 P0001 T01240113
K11R 171335Z AUTO 01003KT 10SM OVC009 12/12 A3010 RMK AO2 P0001 T01240116
K11R 171315Z AUTO 35005KT 10SM -RA OVC009 12/12 A3010 RMK AO2 T01230118
K11R 171255Z AUTO 35007KT 10SM OVC009 12/12 A3009 RMK AO2 T01220117
K11R 171235Z AUTO 33008KT 5SM -RA OVC009 13/12 A3009 RMK AO2 T01250118
K11R 171215Z AUTO 32008KT 4SM DZ OVC009 13/11 A3009 RMK AO2 T01310113
K11R 171155Z AUTO 32005KT 10SM OVC009 14/12 A3007 RMK AO2 T01400119 10140 20119
K11R 171135Z AUTO 00000KT 10SM OVC009 14/12 A3005 RMK AO2 T01400118
K11R 171115Z AUTO 30004KT 10SM -DZ BKN011 OVC015 14/12 A3004 RMK AO2 T01390118
K11R 171055Z AUTO 00000KT 10SM RA BKN011 OVC015 14/11 A3003 RMK AO2 T01370111
K11R 171035Z AUTO 00000KT 10SM OVC011 14/11 A3003 RMK AO2 T01350108
K11R 171015Z AUTO 00000KT 10SM OVC011 14/10 A3003 RMK AO2 T01350103
K11R 170955Z AUTO 00000KT 10SM OVC013 13/10 A3003 RMK AO2 T01320102
K11R 170935Z AUTO 00000KT 10SM OVC015 13/10 A3002 RMK AO2 T01300098
K11R 170915Z AUTO 00000KT 10SM OVC015 13/10 A3004 RMK AO2 T01260095
K11R 170855Z AUTO 00000KT 10SM BKN017 BKN030 BKN037 12/09 A3005 RMK AO2 T01220091
K11R 170835Z AUTO 00000KT 10SM BKN017 OVC039 13/09 A3006 RMK AO2 T01260092
K11R 170815Z AUTO 29004KT 10SM OVC039 13/10 A3007 RMK AO2 T01250095
K11R 170755Z AUTO 00000KT 10SM SCT028 BKN041 12/09 A3007 RMK AO2 T01210090
K11R 170735Z AUTO 00000KT 10SM SCT028 13/09 A3008 RMK AO2 T01250088
K11R 170715Z AUTO 01003KT 10SM SCT043 12/09 A3009 RMK AO2 T01230090
K11R 170655Z AUTO 00000KT 10SM SCT015 SCT043 13/09 A3010 RMK AO2 T01270090
K11R 170635Z AUTO 32005KT 10SM BKN015 13/09 A3010 RMK AO2 T01290091
K11R 170615Z AUTO 33003KT 10SM BKN015 BKN020 BKN044 13/09 A3010 RMK AO2 T01300091